Time;durP1;ratioP1;P1;durP2;ratioP2;P2;SDS_P1;SDS_P2;PMS_P1;PMS_P2;Temp;Humidity;BMP_temperature;BMP_pressure;BME280_temperature;BME280_humidity;BME280_pressure;Samples;Min_cycle;Max_cycle;Signal;HPM_P1;HPM_P2
2021/04/29 00:00:14;;;;;;;14.05;4.20;;;;;;;;;;4991841;28;20065;-68
2021/04/29 00:02:41;;;;;;;24.77;3.92;;;;;;;;;;4987240;28;20033;-69
2021/04/29 00:05:10;;;;;;;20.73;3.65;;;;;;;;;;4992710;28;20031;-70
2021/04/29 00:07:37;;;;;;;18.77;3.97;;;;;;;;;;4994064;28;20481;-70
2021/04/29 00:10:06;;;;;;;16.20;3.13;;;;;;;;;;4993230;28;20022;-69
2021/04/29 00:12:33;;;;;;;17.08;4.03;;;;;;;;;;4993517;28;20015;-73
2021/04/29 00:15:00;;;;;;;17.15;4.25;;;;;;;;;;4992967;28;20042;-66
2021/04/29 00:17:27;;;;;;;27.73;3.97;;;;;;;;;;4992970;28;20385;-65
2021/04/29 00:19:54;;;;;;;20.10;4.28;;;;;;;;;;4991807;28;20121;-69
2021/04/29 00:22:21;;;;;;;16.92;3.83;;;;;;;;;;4992105;28;20391;-70
2021/04/29 00:24:48;;;;;;;17.67;4.07;;;;;;;;;;4992451;28;20014;-70
2021/04/29 00:27:15;;;;;;;17.58;4.53;;;;;;;;;;4993096;28;20502;-65
2021/04/29 00:29:42;;;;;;;24.00;5.78;;;;;;;;;;4992941;28;20101;-67
2021/04/29 00:32:09;;;;;;;19.85;4.57;;;;;;;;;;4992276;28;20031;-64
2021/04/29 00:34:36;;;;;;;13.70;3.78;;;;;;;;;;4992764;28;20022;-65
2021/04/29 00:37:03;;;;;;;18.95;3.90;;;;;;;;;;4992267;28;20037;-62
2021/04/29 00:39:31;;;;;;;17.20;3.75;;;;;;;;;;4991741;28;20023;-65
2021/04/29 00:41:58;;;;;;;18.08;3.70;;;;;;;;;;4993210;28;20029;-68
2021/04/29 00:44:24;;;;;;;21.20;4.70;;;;;;;;;;4992224;28;20018;-65
2021/04/29 00:46:52;;;;;;;15.93;4.45;;;;;;;;;;4992281;28;20022;-68
2021/04/29 00:49:19;;;;;;;16.25;4.22;;;;;;;;;;4992657;28;20398;-64
2021/04/29 00:51:46;;;;;;;19.15;4.47;;;;;;;;;;4992409;28;20050;-64
2021/04/29 00:54:13;;;;;;;14.73;4.13;;;;;;;;;;4992285;28;20050;-64
2021/04/29 00:56:40;;;;;;;17.20;4.07;;;;;;;;;;4992402;28;20027;-67
2021/04/29 00:59:08;;;;;;;22.50;4.38;;;;;;;;;;4992356;28;20026;-66
2021/04/29 01:01:35;;;;;;;12.02;3.75;;;;;;;;;;4974623;28;20034;-65
2021/04/29 01:04:24;;;;;;;16.85;3.78;;;;;;;;;;4992496;28;20023;-67
2021/04/29 01:06:58;;;;;;;14.88;3.75;;;;;;;;;;4992493;28;20030;-64
2021/04/29 01:09:48;;;;;;;18.42;4.45;;;;;;;;;;4992433;28;20029;-65
2021/04/29 01:12:35;;;;;;;16.98;3.70;;;;;;;;;;4979725;28;20053;-64
2021/04/29 01:15:03;;;;;;;12.23;3.47;;;;;;;;;;4992617;28;20038;-64
2021/04/29 01:17:31;;;;;;;23.23;4.28;;;;;;;;;;4991887;28;20541;-64
2021/04/29 01:20:03;;;;;;;16.67;4.25;;;;;;;;;;4992021;28;20504;-64
2021/04/29 01:22:30;;;;;;;17.95;3.80;;;;;;;;;;4990390;28;20525;-64
2021/04/29 01:25:00;;;;;;;14.57;3.80;;;;;;;;;;4981884;28;20023;-65
2021/04/29 01:27:28;;;;;;;12.15;3.53;;;;;;;;;;4971732;28;20479;-64
2021/04/29 01:29:55;;;;;;;18.10;4.13;;;;;;;;;;4974737;28;20027;-64
2021/04/29 01:32:22;;;;;;;13.10;3.20;;;;;;;;;;4971643;28;20027;-65
2021/04/29 01:34:49;;;;;;;15.48;3.38;;;;;;;;;;4989679;28;20026;-69
2021/04/29 01:37:17;;;;;;;11.70;3.20;;;;;;;;;;4992047;28;20036;-69
2021/04/29 01:39:44;;;;;;;12.00;2.88;;;;;;;;;;4992273;28;20022;-64
2021/04/29 01:42:11;;;;;;;12.65;3.05;;;;;;;;;;4991734;28;20031;-66
2021/04/29 01:44:39;;;;;;;13.55;2.97;;;;;;;;;;4991948;28;20030;-66
2021/04/29 01:47:07;;;;;;;14.32;3.08;;;;;;;;;;4989928;28;20023;-66
2021/04/29 01:49:34;;;;;;;8.73;2.80;;;;;;;;;;4972603;28;20023;-67
2021/04/29 01:52:01;;;;;;;14.10;2.60;;;;;;;;;;4975271;28;20049;-63
2021/04/29 01:54:28;;;;;;;13.73;3.13;;;;;;;;;;4973797;28;20022;-69
2021/04/29 01:56:55;;;;;;;15.90;2.80;;;;;;;;;;4973193;28;20022;-66
2021/04/29 01:59:22;;;;;;;9.07;2.60;;;;;;;;;;4976327;28;20026;-68
2021/04/29 02:01:50;;;;;;;13.07;2.45;;;;;;;;;;4972474;28;20018;-64
2021/04/29 02:04:17;;;;;;;12.93;2.28;;;;;;;;;;4972530;28;20019;-66
2021/04/29 02:06:45;;;;;;;9.35;2.85;;;;;;;;;;4971832;28;20022;-68
2021/04/29 02:09:12;;;;;;;7.05;2.22;;;;;;;;;;4991693;28;20025;-69
2021/04/29 02:11:45;;;;;;;16.05;3.03;;;;;;;;;;4991695;28;20100;-68
2021/04/29 02:14:13;;;;;;;9.82;2.47;;;;;;;;;;4991426;28;20022;-70
2021/04/29 02:16:44;;;;;;;9.07;2.97;;;;;;;;;;4991748;28;20030;-69
2021/04/29 02:19:13;;;;;;;7.90;2.17;;;;;;;;;;4991961;28;20018;-69
2021/04/29 02:21:43;;;;;;;9.52;2.95;;;;;;;;;;4992128;28;20152;-70
2021/04/29 02:24:11;;;;;;;8.05;2.22;;;;;;;;;;4992595;28;20022;-70
2021/04/29 02:26:39;;;;;;;9.02;2.65;;;;;;;;;;4992164;28;20031;-70
2021/04/29 02:29:07;;;;;;;10.05;2.35;;;;;;;;;;4991772;28;20029;-70
2021/04/29 02:31:36;;;;;;;13.07;2.40;;;;;;;;;;4986209;28;20028;-68
2021/04/29 02:34:04;;;;;;;15.40;3.00;;;;;;;;;;4991389;28;20105;-67
2021/04/29 02:36:32;;;;;;;11.80;2.72;;;;;;;;;;4991338;28;20549;-66
2021/04/29 02:38:59;;;;;;;10.57;2.50;;;;;;;;;;4990762;28;20398;-66
2021/04/29 02:41:26;;;;;;;15.68;2.38;;;;;;;;;;4990782;28;20101;-67
2021/04/29 02:43:54;;;;;;;15.85;2.72;;;;;;;;;;4991677;28;20033;-67
2021/04/29 02:46:21;;;;;;;13.75;2.35;;;;;;;;;;4991191;28;20672;-66
2021/04/29 02:48:48;;;;;;;8.15;2.88;;;;;;;;;;4990931;28;20352;-63
2021/04/29 02:51:15;;;;;;;7.05;2.15;;;;;;;;;;4991132;28;20105;-66
2021/04/29 02:53:43;;;;;;;9.07;2.08;;;;;;;;;;4990574;28;20125;-68
2021/04/29 02:56:10;;;;;;;8.55;2.30;;;;;;;;;;4990937;28;20088;-67
2021/04/29 02:58:48;;;;;;;8.30;2.22;;;;;;;;;;4990855;28;20026;-62
2021/04/29 03:01:15;;;;;;;7.78;2.40;;;;;;;;;;4991807;28;20534;-64
2021/04/29 03:03:44;;;;;;;10.73;2.45;;;;;;;;;;4991401;28;20027;-63
2021/04/29 03:06:11;;;;;;;11.45;2.15;;;;;;;;;;4991830;28;20030;-63
2021/04/29 03:08:38;;;;;;;5.63;2.05;;;;;;;;;;4974176;28;20026;-63
2021/04/29 03:11:06;;;;;;;6.97;1.80;;;;;;;;;;4991609;28;20018;-65
2021/04/29 03:13:33;;;;;;;7.38;1.92;;;;;;;;;;4991213;28;20390;-62
2021/04/29 03:16:00;;;;;;;8.23;2.20;;;;;;;;;;4991994;28;20058;-63
2021/04/29 03:18:27;;;;;;;4.45;2.00;;;;;;;;;;4991258;28;20029;-63
2021/04/29 03:20:54;;;;;;;7.20;2.05;;;;;;;;;;4991628;28;20483;-64
2021/04/29 03:23:21;;;;;;;7.13;2.00;;;;;;;;;;4991260;28;20018;-63
2021/04/29 03:25:48;;;;;;;6.05;1.67;;;;;;;;;;4991756;28;20027;-63
2021/04/29 03:28:15;;;;;;;10.88;1.98;;;;;;;;;;4991506;28;20022;-64
2021/04/29 03:30:42;;;;;;;13.25;2.10;;;;;;;;;;4991268;28;20390;-63
2021/04/29 03:33:10;;;;;;;8.23;2.13;;;;;;;;;;4991713;28;20387;-64
2021/04/29 03:35:37;;;;;;;5.97;2.35;;;;;;;;;;4990943;28;20066;-63
2021/04/29 03:38:04;;;;;;;7.10;2.22;;;;;;;;;;4991839;28;20486;-63
2021/04/29 03:40:31;;;;;;;6.50;1.70;;;;;;;;;;4991621;28;20050;-63
2021/04/29 03:43:00;;;;;;;4.40;1.75;;;;;;;;;;4994962;28;20359;-64
2021/04/29 03:45:27;;;;;;;6.65;2.05;;;;;;;;;;4994685;28;20039;-65
2021/04/29 03:47:54;;;;;;;6.00;1.73;;;;;;;;;;4994983;28;20019;-63
2021/04/29 03:50:21;;;;;;;4.93;1.50;;;;;;;;;;4994047;28;20132;-63
2021/04/29 03:52:48;;;;;;;5.65;1.90;;;;;;;;;;4994896;28;20486;-62
2021/04/29 03:55:15;;;;;;;5.38;1.85;;;;;;;;;;4994295;28;20022;-64
2021/04/29 03:57:44;;;;;;;5.85;1.88;;;;;;;;;;4994613;28;20046;-65
2021/04/29 04:00:11;;;;;;;5.93;1.90;;;;;;;;;;4994482;28;20430;-63
2021/04/29 04:02:39;;;;;;;3.25;1.42;;;;;;;;;;4994558;28;20030;-63
2021/04/29 04:05:06;;;;;;;5.43;1.73;;;;;;;;;;4994311;28;20097;-65
2021/04/29 04:07:33;;;;;;;5.63;2.20;;;;;;;;;;4994664;28;20030;-65
2021/04/29 04:10:01;;;;;;;3.97;1.50;;;;;;;;;;4994673;28;20034;-65
2021/04/29 04:12:28;;;;;;;4.70;2.00;;;;;;;;;;4994147;28;20100;-66
2021/04/29 04:14:55;;;;;;;5.10;1.83;;;;;;;;;;4994544;28;20061;-66
2021/04/29 04:17:22;;;;;;;5.90;1.83;;;;;;;;;;4994178;28;20022;-65
2021/04/29 04:19:49;;;;;;;4.20;2.00;;;;;;;;;;4994347;28;20034;-65
2021/04/29 04:22:16;;;;;;;5.90;1.70;;;;;;;;;;4993827;28;20101;-64
2021/04/29 04:24:43;;;;;;;3.33;1.67;;;;;;;;;;4994476;28;20030;-64
2021/04/29 04:27:10;;;;;;;3.75;1.67;;;;;;;;;;4993682;28;20062;-67
2021/04/29 04:29:37;;;;;;;5.72;2.15;;;;;;;;;;4994063;28;20029;-64
2021/04/29 04:32:04;;;;;;;3.03;1.50;;;;;;;;;;4993680;28;20018;-66
2021/04/29 04:34:31;;;;;;;3.67;1.60;;;;;;;;;;4994030;28;20021;-66
2021/04/29 04:36:58;;;;;;;3.30;1.70;;;;;;;;;;4993679;28;20027;-66
2021/04/29 04:39:26;;;;;;;6.18;1.60;;;;;;;;;;4994110;28;20374;-66
2021/04/29 04:41:53;;;;;;;6.22;1.83;;;;;;;;;;4975875;28;20026;-65
2021/04/29 04:44:20;;;;;;;4.63;1.65;;;;;;;;;;4993901;28;20073;-66
2021/04/29 04:46:47;;;;;;;3.08;1.70;;;;;;;;;;4993488;28;20014;-67
2021/04/29 04:49:14;;;;;;;3.13;1.60;;;;;;;;;;4993497;28;20026;-65
2021/04/29 04:51:42;;;;;;;4.40;1.92;;;;;;;;;;4992702;28;20046;-64
2021/04/29 04:54:09;;;;;;;3.78;1.73;;;;;;;;;;4993708;28;20026;-66
2021/04/29 04:56:36;;;;;;;4.13;1.90;;;;;;;;;;4993677;28;20045;-66
2021/04/29 04:59:03;;;;;;;2.78;1.50;;;;;;;;;;4993369;28;20021;-64
2021/04/29 05:01:30;;;;;;;5.07;2.00;;;;;;;;;;4993429;28;20061;-66
2021/04/29 05:04:01;;;;;;;3.83;1.88;;;;;;;;;;4992938;28;20110;-67
2021/04/29 05:06:28;;;;;;;5.72;1.83;;;;;;;;;;4960724;28;20073;-67
2021/04/29 05:08:55;;;;;;;4.55;1.50;;;;;;;;;;4993361;28;20029;-67
2021/04/29 05:11:22;;;;;;;3.20;1.30;;;;;;;;;;4993702;28;20067;-66
2021/04/29 05:13:49;;;;;;;4.15;1.70;;;;;;;;;;4992917;28;20022;-66
2021/04/29 05:16:16;;;;;;;2.90;1.45;;;;;;;;;;4993735;28;20120;-66
2021/04/29 05:18:43;;;;;;;4.25;1.63;;;;;;;;;;4975739;28;20015;-66
2021/04/29 05:21:10;;;;;;;2.83;1.30;;;;;;;;;;4993577;28;20023;-64
2021/04/29 05:23:37;;;;;;;7.07;1.48;;;;;;;;;;4975274;28;20398;-66
2021/04/29 05:26:04;;;;;;;3.47;1.20;;;;;;;;;;4993298;28;20022;-65
2021/04/29 05:28:31;;;;;;;2.65;1.30;;;;;;;;;;4993242;28;20037;-63
2021/04/29 05:30:58;;;;;;;5.28;1.40;;;;;;;;;;4975776;28;20152;-66
2021/04/29 05:33:25;;;;;;;1.98;1.10;;;;;;;;;;4993240;28;20026;-65
2021/04/29 05:35:53;;;;;;;3.38;1.33;;;;;;;;;;4992894;28;20386;-63
2021/04/29 05:38:20;;;;;;;1.90;0.98;;;;;;;;;;4993271;28;20102;-63
2021/04/29 05:40:47;;;;;;;3.05;1.40;;;;;;;;;;4992846;28;20526;-63
2021/04/29 05:43:14;;;;;;;3.20;1.25;;;;;;;;;;4993100;28;20033;-63
2021/04/29 05:45:41;;;;;;;3.45;1.20;;;;;;;;;;4992614;28;20025;-64
2021/04/29 05:48:08;;;;;;;4.07;1.48;;;;;;;;;;4993186;28;20031;-65
2021/04/29 05:50:35;;;;;;;3.13;1.52;;;;;;;;;;4992378;28;20041;-64
2021/04/29 05:53:02;;;;;;;2.70;1.38;;;;;;;;;;4992590;28;20031;-63
2021/04/29 05:55:29;;;;;;;2.72;1.20;;;;;;;;;;4992392;28;20041;-64
2021/04/29 05:57:59;;;;;;;4.07;1.58;;;;;;;;;;4975188;28;20414;-63
2021/04/29 06:00:26;;;;;;;3.00;1.40;;;;;;;;;;4992468;28;20529;-65
2021/04/29 06:02:55;;;;;;;4.35;1.70;;;;;;;;;;4992502;28;20058;-63
2021/04/29 06:05:23;;;;;;;3.00;1.50;;;;;;;;;;4992084;28;20037;-63
2021/04/29 06:08:00;;;;;;;2.13;1.30;;;;;;;;;;4992505;28;20026;-63
2021/04/29 06:10:28;;;;;;;4.13;1.10;;;;;;;;;;4992442;28;20038;-65
2021/04/29 06:12:55;;;;;;;2.40;1.30;;;;;;;;;;4992699;28;20387;-67
2021/04/29 06:15:23;;;;;;;2.15;1.02;;;;;;;;;;4992675;28;20089;-65
2021/04/29 06:17:50;;;;;;;3.05;1.00;;;;;;;;;;4992166;28;20022;-65
2021/04/29 06:20:18;;;;;;;3.83;1.30;;;;;;;;;;4992774;28;20034;-67
2021/04/29 06:22:45;;;;;;;2.95;1.20;;;;;;;;;;4992267;28;20033;-66
2021/04/29 06:25:12;;;;;;;2.30;1.02;;;;;;;;;;4992457;28;20022;-66
2021/04/29 06:27:39;;;;;;;3.30;1.15;;;;;;;;;;4991947;28;20101;-65
2021/04/29 06:30:07;;;;;;;2.67;1.20;;;;;;;;;;4992600;28;20026;-67
2021/04/29 06:32:35;;;;;;;2.50;1.25;;;;;;;;;;4991170;28;20023;-66
2021/04/29 06:35:02;;;;;;;3.13;1.20;;;;;;;;;;4992398;28;20022;-64
2021/04/29 06:37:29;;;;;;;2.55;1.33;;;;;;;;;;4991860;28;20519;-66
2021/04/29 06:39:56;;;;;;;2.45;1.00;;;;;;;;;;4992486;28;20501;-66
2021/04/29 06:42:23;;;;;;;2.13;1.02;;;;;;;;;;4991947;28;20479;-66
2021/04/29 06:44:50;;;;;;;1.77;1.10;;;;;;;;;;4992192;28;20379;-66
2021/04/29 06:47:21;;;;;;;2.35;1.52;;;;;;;;;;4991969;28;20122;-66
2021/04/29 06:49:48;;;;;;;1.77;1.25;;;;;;;;;;4992075;28;20022;-66
2021/04/29 06:52:17;;;;;;;3.13;1.20;;;;;;;;;;4992019;28;20038;-65
2021/04/29 06:54:47;;;;;;;4.47;1.45;;;;;;;;;;4974632;28;20483;-67
2021/04/29 06:57:15;;;;;;;3.60;1.17;;;;;;;;;;4992361;28;20030;-67
2021/04/29 06:59:42;;;;;;;3.83;1.13;;;;;;;;;;4974381;28;20022;-66
2021/04/29 07:02:10;;;;;;;1.70;1.10;;;;;;;;;;4992234;28;20035;-67
2021/04/29 07:04:37;;;;;;;1.55;0.90;;;;;;;;;;4991451;28;20117;-64
2021/04/29 07:07:05;;;;;;;2.42;0.95;;;;;;;;;;4992265;28;20026;-66
2021/04/29 07:09:32;;;;;;;1.83;1.10;;;;;;;;;;4991603;28;20030;-68
2021/04/29 07:11:59;;;;;;;2.83;1.00;;;;;;;;;;4992225;28;20022;-66
2021/04/29 07:14:26;;;;;;;4.95;1.38;;;;;;;;;;4992160;28;20045;-65
2021/04/29 07:16:53;;;;;;;3.22;1.05;;;;;;;;;;4995967;28;20494;-67
2021/04/29 07:19:20;;;;;;;1.40;0.90;;;;;;;;;;4995267;28;20034;-67
2021/04/29 07:21:47;;;;;;;1.17;0.80;;;;;;;;;;4995871;28;20062;-64
2021/04/29 07:24:14;;;;;;;1.73;0.98;;;;;;;;;;4994991;28;20034;-67
2021/04/29 07:26:41;;;;;;;3.13;1.10;;;;;;;;;;4995678;28;20019;-66
2021/04/29 07:29:08;;;;;;;2.25;1.25;;;;;;;;;;4995293;28;20026;-65
2021/04/29 07:31:35;;;;;;;2.42;1.20;;;;;;;;;;4995453;28;20363;-63
2021/04/29 07:34:02;;;;;;;1.42;0.95;;;;;;;;;;4995034;28;20029;-64
2021/04/29 07:36:29;;;;;;;1.35;1.10;;;;;;;;;;4995445;28;20034;-67
2021/04/29 07:38:57;;;;;;;2.78;1.00;;;;;;;;;;4995581;28;20364;-66
2021/04/29 07:41:26;;;;;;;2.53;1.15;;;;;;;;;;4994951;28;20029;-66
2021/04/29 07:43:55;;;;;;;2.30;1.13;;;;;;;;;;4995754;28;20026;-65
2021/04/29 07:46:22;;;;;;;2.67;1.08;;;;;;;;;;4994511;28;20022;-65
2021/04/29 07:48:49;;;;;;;1.65;1.00;;;;;;;;;;4995368;28;20023;-63
2021/04/29 07:51:16;;;;;;;1.85;1.10;;;;;;;;;;4994825;28;20053;-66
2021/04/29 07:53:43;;;;;;;2.50;1.10;;;;;;;;;;4995069;28;20026;-67
2021/04/29 07:56:10;;;;;;;1.67;0.88;;;;;;;;;;4977125;28;20052;-66
2021/04/29 07:58:37;;;;;;;1.38;1.02;;;;;;;;;;4995233;28;20085;-65
2021/04/29 08:01:04;;;;;;;2.22;1.33;;;;;;;;;;4994571;28;20109;-66
2021/04/29 08:03:31;;;;;;;2.33;1.30;;;;;;;;;;4994817;28;20015;-66
2021/04/29 08:05:58;;;;;;;2.92;1.05;;;;;;;;;;4976860;28;20037;-64
2021/04/29 08:08:25;;;;;;;1.25;0.75;;;;;;;;;;4995180;28;20109;-66
2021/04/29 08:10:52;;;;;;;1.58;0.95;;;;;;;;;;4994880;28;20031;-64
2021/04/29 08:13:19;;;;;;;1.50;0.88;;;;;;;;;;4994515;28;20041;-64
2021/04/29 08:15:46;;;;;;;1.38;1.00;;;;;;;;;;4994455;28;20035;-63
2021/04/29 08:18:14;;;;;;;2.42;0.95;;;;;;;;;;4994309;28;20034;-64
2021/04/29 08:20:42;;;;;;;1.42;0.75;;;;;;;;;;4994815;28;20071;-64
2021/04/29 08:23:09;;;;;;;2.15;1.00;;;;;;;;;;4994265;28;20427;-65
2021/04/29 08:25:36;;;;;;;1.38;0.93;;;;;;;;;;4994352;28;20027;-63
2021/04/29 08:28:04;;;;;;;1.45;1.00;;;;;;;;;;4993729;28;20027;-67
2021/04/29 08:30:31;;;;;;;2.33;0.82;;;;;;;;;;4994671;28;20105;-66
2021/04/29 08:32:58;;;;;;;1.83;0.90;;;;;;;;;;4994028;28;20045;-65
2021/04/29 08:35:26;;;;;;;1.70;0.90;;;;;;;;;;4994270;28;20478;-64
2021/04/29 08:37:53;;;;;;;1.23;0.90;;;;;;;;;;4994137;28;20467;-65
2021/04/29 08:40:22;;;;;;;2.95;0.90;;;;;;;;;;4976928;28;20022;-63
2021/04/29 08:42:49;;;;;;;2.05;0.77;;;;;;;;;;4993709;28;20034;-64
2021/04/29 08:45:16;;;;;;;1.50;0.90;;;;;;;;;;4994366;28;20022;-64
2021/04/29 08:47:48;;;;;;;2.50;1.10;;;;;;;;;;4993582;28;20039;-66
2021/04/29 08:50:15;;;;;;;1.17;0.80;;;;;;;;;;4976596;28;20541;-63
2021/04/29 08:52:43;;;;;;;1.35;0.82;;;;;;;;;;4993767;28;20088;-66
2021/04/29 08:55:10;;;;;;;1.98;1.00;;;;;;;;;;4994241;28;20049;-66
2021/04/29 08:57:37;;;;;;;0.93;0.80;;;;;;;;;;4993658;28;20049;-65
2021/04/29 09:00:05;;;;;;;1.38;0.82;;;;;;;;;;4993449;28;20475;-64
2021/04/29 09:02:33;;;;;;;1.35;1.00;;;;;;;;;;4994097;28;20049;-65
2021/04/29 09:05:09;;;;;;;1.58;0.90;;;;;;;;;;4993542;28;20023;-65
2021/04/29 09:07:36;;;;;;;1.92;0.90;;;;;;;;;;4993300;28;20037;-67
2021/04/29 09:10:04;;;;;;;1.17;0.70;;;;;;;;;;4993552;28;20706;-67
2021/04/29 09:12:39;;;;;;;1.50;0.90;;;;;;;;;;4993647;28;20026;-67
2021/04/29 09:15:07;;;;;;;1.80;0.90;;;;;;;;;;4993052;28;20065;-66
2021/04/29 09:17:34;;;;;;;2.10;1.00;;;;;;;;;;4993305;28;20026;-66
2021/04/29 09:20:01;;;;;;;2.50;1.17;;;;;;;;;;4993144;28;20033;-66
2021/04/29 09:22:28;;;;;;;2.17;0.90;;;;;;;;;;4993519;28;20023;-66
2021/04/29 09:24:55;;;;;;;2.28;0.90;;;;;;;;;;4975847;28;20076;-67
2021/04/29 09:27:28;;;;;;;1.50;0.93;;;;;;;;;;4993272;28;20022;-66
2021/04/29 09:30:02;;;;;;;3.05;1.10;;;;;;;;;;4993305;28;20490;-65
2021/04/29 09:32:36;;;;;;;1.25;1.05;;;;;;;;;;4993262;28;20022;-67
2021/04/29 09:35:05;;;;;;;1.13;0.95;;;;;;;;;;4993006;28;20022;-66
2021/04/29 09:37:34;;;;;;;2.13;0.90;;;;;;;;;;4992771;28;20023;-66
2021/04/29 09:40:03;;;;;;;1.70;0.90;;;;;;;;;;4992308;28;20045;-66
2021/04/29 09:42:39;;;;;;;1.50;0.85;;;;;;;;;;4993195;28;20022;-66
2021/04/29 09:45:17;;;;;;;2.42;0.80;;;;;;;;;;4975266;28;20031;-64
2021/04/29 09:47:57;;;;;;;1.27;0.80;;;;;;;;;;4992672;28;20446;-65
2021/04/29 09:50:29;;;;;;;1.65;0.82;;;;;;;;;;4992444;28;20066;-67
2021/04/29 09:53:22;;;;;;;1.65;0.90;;;;;;;;;;4993368;28;20030;-68
2021/04/29 09:55:49;;;;;;;1.48;0.90;;;;;;;;;;4989280;28;20106;-67
2021/04/29 09:58:23;;;;;;;1.20;0.80;;;;;;;;;;4992772;28;20028;-65
2021/04/29 10:00:51;;;;;;;1.17;0.68;;;;;;;;;;4992297;28;20034;-67
2021/04/29 10:03:19;;;;;;;1.58;0.93;;;;;;;;;;4992895;28;20026;-66
2021/04/29 10:06:15;;;;;;;2.22;1.00;;;;;;;;;;4992840;28;20031;-64
2021/04/29 10:08:42;;;;;;;2.78;1.10;;;;;;;;;;4976180;28;20038;-68
2021/04/29 10:11:10;;;;;;;1.77;1.00;;;;;;;;;;4975508;28;20027;-67
2021/04/29 10:13:41;;;;;;;1.05;0.80;;;;;;;;;;4992219;28;20490;-67
2021/04/29 10:16:08;;;;;;;1.80;0.80;;;;;;;;;;4992781;28;20121;-67
2021/04/29 10:18:35;;;;;;;1.67;1.00;;;;;;;;;;4992449;28;20026;-67
2021/04/29 10:21:02;;;;;;;3.30;1.00;;;;;;;;;;4975290;28;20419;-65
2021/04/29 10:23:30;;;;;;;2.50;0.98;;;;;;;;;;4992198;28;20033;-64
2021/04/29 10:25:58;;;;;;;1.05;0.82;;;;;;;;;;4992870;28;20023;-66
2021/04/29 10:28:35;;;;;;;2.28;0.90;;;;;;;;;;4992267;28;20029;-65
2021/04/29 10:31:23;;;;;;;2.40;0.90;;;;;;;;;;4992684;28;20035;-65
2021/04/29 10:33:57;;;;;;;1.70;0.93;;;;;;;;;;4991815;28;20057;-66
2021/04/29 10:36:35;;;;;;;1.10;0.90;;;;;;;;;;4992158;28;20038;-67
2021/04/29 10:39:15;;;;;;;9.00;1.20;;;;;;;;;;4989968;28;20093;-63
2021/04/29 10:41:42;;;;;;;2.65;1.10;;;;;;;;;;4991787;28;20023;-64
2021/04/29 10:44:14;;;;;;;13.88;1.63;;;;;;;;;;4991890;28;20100;-70
2021/04/29 10:46:41;;;;;;;8.95;1.40;;;;;;;;;;4992106;28;20026;-65
2021/04/29 10:49:09;;;;;;;5.20;1.40;;;;;;;;;;4989320;28;20112;-63
2021/04/29 10:51:37;;;;;;;3.03;1.20;;;;;;;;;;4995744;28;20073;-68
2021/04/29 10:54:10;;;;;;;2.83;1.40;;;;;;;;;;4995923;28;20061;-67
2021/04/29 10:56:38;;;;;;;4.90;1.60;;;;;;;;;;4995931;28;20046;-66
2021/04/29 10:59:09;;;;;;;3.17;1.00;;;;;;;;;;4995083;28;20501;-64
2021/04/29 11:01:43;;;;;;;3.50;1.30;;;;;;;;;;4993088;28;20027;-61
2021/04/29 11:04:18;;;;;;;3.88;0.98;;;;;;;;;;4960309;28;20114;-62
2021/04/29 11:06:45;;;;;;;5.60;1.17;;;;;;;;;;4993311;28;20482;-62
2021/04/29 11:09:19;;;;;;;12.43;1.63;;;;;;;;;;4994697;28;20030;-65
2021/04/29 11:11:46;;;;;;;8.45;1.42;;;;;;;;;;4994789;28;20112;-63
2021/04/29 11:14:15;;;;;;;4.95;1.27;;;;;;;;;;4994149;28;20030;-62
2021/04/29 11:16:43;;;;;;;3.97;1.35;;;;;;;;;;4994930;28;20066;-63
2021/04/29 11:19:22;;;;;;;4.32;1.55;;;;;;;;;;4978331;28;20117;-65
2021/04/29 11:21:49;;;;;;;5.35;1.50;;;;;;;;;;4994373;28;20030;-66
2021/04/29 11:24:16;;;;;;;2.38;1.17;;;;;;;;;;4993384;28;20026;-68
2021/04/29 11:26:44;;;;;;;3.70;1.20;;;;;;;;;;4995117;28;20030;-63
2021/04/29 11:29:11;;;;;;;3.15;1.00;;;;;;;;;;4994284;28;20035;-68
2021/04/29 11:31:41;;;;;;;10.07;1.20;;;;;;;;;;4994896;28;20054;-69
2021/04/29 11:34:08;;;;;;;2.88;1.00;;;;;;;;;;4994780;28;20073;-66
2021/04/29 11:36:35;;;;;;;6.88;1.70;;;;;;;;;;4992714;28;20490;-73
2021/04/29 11:39:05;;;;;;;7.90;1.50;;;;;;;;;;4995278;28;20037;-62
2021/04/29 11:41:32;;;;;;;1.77;1.20;;;;;;;;;;4994649;28;20081;-71
2021/04/29 11:44:03;;;;;;;5.63;1.20;;;;;;;;;;4994943;28;20053;-67
2021/04/29 11:46:31;;;;;;;2.58;1.30;;;;;;;;;;4993670;28;20026;-66
2021/04/29 11:49:02;;;;;;;3.45;1.10;;;;;;;;;;4992073;28;20061;-67
2021/04/29 11:51:30;;;;;;;3.97;1.45;;;;;;;;;;4993443;28;20050;-67
2021/04/29 11:54:07;;;;;;;5.15;1.38;;;;;;;;;;4994101;28;20478;-64
2021/04/29 11:56:38;;;;;;;8.25;1.60;;;;;;;;;;4993952;28;20038;-67
2021/04/29 11:59:07;;;;;;;4.63;1.15;;;;;;;;;;4992803;28;20022;-63
2021/04/29 12:01:35;;;;;;;3.20;1.17;;;;;;;;;;4991355;28;20023;-63
2021/04/29 12:04:14;;;;;;;4.15;1.20;;;;;;;;;;4994138;28;20015;-63
2021/04/29 12:06:48;;;;;;;4.43;1.17;;;;;;;;;;4993798;28;20026;-63
2021/04/29 12:09:15;;;;;;;8.90;1.27;;;;;;;;;;4994414;28;20085;-66
2021/04/29 12:11:42;;;;;;;4.15;1.55;;;;;;;;;;4990427;28;20026;-64
2021/04/29 12:14:09;;;;;;;4.95;1.25;;;;;;;;;;4994521;28;20097;-65
2021/04/29 12:16:36;;;;;;;4.82;1.58;;;;;;;;;;4994748;28;20045;-65
2021/04/29 12:19:04;;;;;;;4.70;1.38;;;;;;;;;;4994891;28;20046;-75
2021/04/29 12:21:33;;;;;;;5.25;1.73;;;;;;;;;;4995431;28;20111;-69
2021/04/29 12:24:04;;;;;;;5.68;1.52;;;;;;;;;;4993582;28;20022;-67
2021/04/29 12:26:31;;;;;;;2.00;1.10;;;;;;;;;;4994959;28;20073;-66
2021/04/29 12:29:06;;;;;;;2.70;1.50;;;;;;;;;;4995888;28;20026;-66
2021/04/29 12:31:34;;;;;;;3.88;1.60;;;;;;;;;;4989127;28;20398;-67
2021/04/29 12:34:05;;;;;;;2.50;1.08;;;;;;;;;;4994263;28;20023;-68
2021/04/29 12:36:36;;;;;;;4.88;1.30;;;;;;;;;;4991655;28;20042;-70
2021/04/29 12:39:17;;;;;;;3.80;1.20;;;;;;;;;;4994954;28;20022;-69
2021/04/29 12:41:47;;;;;;;4.45;1.52;;;;;;;;;;4994038;28;20030;-68
2021/04/29 12:44:14;;;;;;;3.00;1.23;;;;;;;;;;4993991;28;20027;-69
2021/04/29 12:46:42;;;;;;;4.20;1.55;;;;;;;;;;4992946;28;20026;-65
2021/04/29 12:49:13;;;;;;;3.15;1.45;;;;;;;;;;4993065;28;20026;-70
2021/04/29 12:51:40;;;;;;;3.17;1.42;;;;;;;;;;4993234;28;20053;-71
2021/04/29 12:54:14;;;;;;;5.63;1.55;;;;;;;;;;4993485;28;20478;-68
2021/04/29 12:56:43;;;;;;;4.72;1.65;;;;;;;;;;4992806;28;20120;-69
2021/04/29 12:59:14;;;;;;;6.75;1.60;;;;;;;;;;4988252;28;20080;-67
2021/04/29 13:01:45;;;;;;;3.67;1.40;;;;;;;;;;4991764;28;20034;-67
2021/04/29 13:04:22;;;;;;;8.40;1.40;;;;;;;;;;4975097;28;20026;-65
2021/04/29 13:06:50;;;;;;;3.83;1.33;;;;;;;;;;4974117;28;20380;-68
2021/04/29 13:09:19;;;;;;;2.03;1.17;;;;;;;;;;4974331;28;20029;-68
2021/04/29 13:11:49;;;;;;;7.95;1.67;;;;;;;;;;4974375;28;20034;-68
2021/04/29 13:14:16;;;;;;;3.15;1.38;;;;;;;;;;4973459;28;20035;-68
2021/04/29 13:16:44;;;;;;;4.60;1.42;;;;;;;;;;4974521;28;20041;-69
2021/04/29 13:19:12;;;;;;;2.72;1.30;;;;;;;;;;4974050;28;20018;-66
2021/04/29 13:21:40;;;;;;;6.20;1.38;;;;;;;;;;4974366;28;20054;-68
2021/04/29 13:24:08;;;;;;;2.22;1.30;;;;;;;;;;4973414;28;20110;-61
2021/04/29 13:26:36;;;;;;;4.53;1.70;;;;;;;;;;4974492;28;20050;-70
2021/04/29 13:29:03;;;;;;;8.02;1.60;;;;;;;;;;4973800;28;20027;-63
2021/04/29 13:31:30;;;;;;;1.80;1.30;;;;;;;;;;4956650;28;20490;-70
2021/04/29 13:34:03;;;;;;;3.75;1.45;;;;;;;;;;4973291;28;20047;-69
2021/04/29 13:36:30;;;;;;;2.03;1.00;;;;;;;;;;4957482;28;20475;-67
2021/04/29 13:38:57;;;;;;;3.95;1.38;;;;;;;;;;4985649;28;20026;-70
2021/04/29 13:41:24;;;;;;;6.60;1.30;;;;;;;;;;4990337;28;20045;-69
2021/04/29 13:43:51;;;;;;;4.28;1.30;;;;;;;;;;4992544;28;20041;-70
2021/04/29 13:46:18;;;;;;;3.40;1.23;;;;;;;;;;4992827;28;20441;-64
2021/04/29 13:48:47;;;;;;;4.60;1.38;;;;;;;;;;4992809;28;20029;-68
2021/04/29 13:51:15;;;;;;;3.83;1.08;;;;;;;;;;4992394;28;20519;-67
2021/04/29 13:53:42;;;;;;;5.57;1.38;;;;;;;;;;4989039;28;20030;-64
2021/04/29 13:56:11;;;;;;;5.45;1.27;;;;;;;;;;4990955;28;20031;-63
2021/04/29 13:58:38;;;;;;;4.32;1.50;;;;;;;;;;4984543;28;20026;-63
2021/04/29 14:01:08;;;;;;;4.30;1.30;;;;;;;;;;4977034;28;20035;-63
2021/04/29 14:03:38;;;;;;;3.63;1.42;;;;;;;;;;4962502;28;20113;-64
2021/04/29 14:06:05;;;;;;;5.55;1.50;;;;;;;;;;4973696;28;20023;-64
2021/04/29 14:08:33;;;;;;;5.90;1.25;;;;;;;;;;4976054;28;20018;-63
2021/04/29 14:11:01;;;;;;;2.05;1.10;;;;;;;;;;4975991;28;20031;-64
2021/04/29 14:13:28;;;;;;;7.80;1.67;;;;;;;;;;4975573;28;20031;-63
2021/04/29 14:15:55;;;;;;;5.00;1.30;;;;;;;;;;4985008;28;20511;-63
2021/04/29 14:18:23;;;;;;;2.47;1.38;;;;;;;;;;4986325;28;20037;-63
2021/04/29 14:20:50;;;;;;;8.68;1.40;;;;;;;;;;4992425;28;20022;-63
2021/04/29 14:23:17;;;;;;;5.25;1.45;;;;;;;;;;4991544;28;20675;-63
2021/04/29 14:25:44;;;;;;;8.48;1.80;;;;;;;;;;4991422;28;20502;-65
2021/04/29 14:28:11;;;;;;;12.02;1.50;;;;;;;;;;4980853;28;20066;-65
2021/04/29 14:30:39;;;;;;;11.43;1.73;;;;;;;;;;4989408;28;20498;-65
2021/04/29 14:33:07;;;;;;;8.30;1.30;;;;;;;;;;4992041;28;20029;-65
2021/04/29 14:35:34;;;;;;;8.73;1.40;;;;;;;;;;4991509;28;20170;-64
2021/04/29 14:38:01;;;;;;;7.85;1.70;;;;;;;;;;4987700;28;20036;-63
2021/04/29 14:40:28;;;;;;;14.25;1.58;;;;;;;;;;4972335;28;20034;-65
2021/04/29 14:42:55;;;;;;;13.25;1.67;;;;;;;;;;4980687;28;20026;-65
2021/04/29 14:45:26;;;;;;;9.60;1.70;;;;;;;;;;4971399;28;20030;-64
2021/04/29 14:47:54;;;;;;;6.93;1.63;;;;;;;;;;4975200;28;20105;-65